sensor_id;sensor_type;location;lat;lon;timestamp;pressure;altitude;pressure_sealevel;temperature
30001;BMP280;16845;48.670;9.000;2023-06-14T00:01:58;95066.91;;;14.54
30001;BMP280;16845;48.670;9.000;2023-06-14T00:04:24;95065.22;;;14.55
30001;BMP280;16845;48.670;9.000;2023-06-14T00:06:52;95063.66;;;14.52
30001;BMP280;16845;48.670;9.000;2023-06-14T00:09:19;95064.78;;;14.47
30001;BMP280;16845;48.670;9.000;2023-06-14T00:11:45;95070.88;;;14.43
30001;BMP280;16845;48.670;9.000;2023-06-14T00:14:12;95072.25;;;14.33
30001;BMP280;16845;48.670;9.000;2023-06-14T00:16:39;95076.41;;;14.34
30001;BMP280;16845;48.670;9.000;2023-06-14T00:19:05;95078.03;;;14.35
30001;BMP280;16845;48.670;9.000;2023-06-14T00:21:32;95074.66;;;14.34
30001;BMP280;16845;48.670;9.000;2023-06-14T00:24:00;95071.34;;;14.17
30001;BMP280;16845;48.670;9.000;2023-06-14T00:26:27;95074.03;;;13.97
30001;BMP280;16845;48.670;9.000;2023-06-14T00:28:54;95074.84;;;13.98
30001;BMP280;16845;48.670;9.000;2023-06-14T00:31:20;95069.84;;;14.13
30001;BMP280;16845;48.670;9.000;2023-06-14T00:33:47;95063.47;;;14.06
30001;BMP280;16845;48.670;9.000;2023-06-14T00:36:14;95064.59;;;14.01
30001;BMP280;16845;48.670;9.000;2023-06-14T00:38:40;95057.25;;;13.96
30001;BMP280;16845;48.670;9.000;2023-06-14T00:41:08;95067.50;;;13.93
30001;BMP280;16845;48.670;9.000;2023-06-14T00:43:34;95067.94;;;13.84
30001;BMP280;16845;48.670;9.000;2023-06-14T00:46:01;95064.50;;;13.85
30001;BMP280;16845;48.670;9.000;2023-06-14T00:48:28;95069.50;;;13.87
30001;BMP280;16845;48.670;9.000;2023-06-14T00:50:55;95067.63;;;13.73
30001;BMP280;16845;48.670;9.000;2023-06-14T00:53:21;95068.69;;;13.69
30001;BMP280;16845;48.670;9.000;2023-06-14T00:55:48;95061.31;;;13.65
30001;BMP280;16845;48.670;9.000;2023-06-14T00:58:16;95070.72;;;13.61
30001;BMP280;16845;48.670;9.000;2023-06-14T01:00:43;95065.25;;;13.53
30001;BMP280;16845;48.670;9.000;2023-06-14T01:03:10;95062.88;;;13.50
30001;BMP280;16845;48.670;9.000;2023-06-14T01:05:37;95055.59;;;13.61
30001;BMP280;16845;48.670;9.000;2023-06-14T01:08:13;95066.53;;;13.62
30001;BMP280;16845;48.670;9.000;2023-06-14T01:10:48;95069.84;;;13.62
30001;BMP280;16845;48.670;9.000;2023-06-14T01:13:20;95061.75;;;13.56
30001;BMP280;16845;48.670;9.000;2023-06-14T01:15:47;95068.59;;;13.54
30001;BMP280;16845;48.670;9.000;2023-06-14T01:18:15;95057.19;;;13.47
30001;BMP280;16845;48.670;9.000;2023-06-14T01:20:42;95071.69;;;13.42
30001;BMP280;16845;48.670;9.000;2023-06-14T01:23:09;95072.19;;;13.31
30001;BMP280;16845;48.670;9.000;2023-06-14T01:25:36;95065.00;;;13.41
30001;BMP280;16845;48.670;9.000;2023-06-14T01:28:05;95067.88;;;13.33
30001;BMP280;16845;48.670;9.000;2023-06-14T01:30:32;95067.16;;;13.31
30001;BMP280;16845;48.670;9.000;2023-06-14T01:32:59;95075.81;;;13.26
30001;BMP280;16845;48.670;9.000;2023-06-14T01:35:26;95066.53;;;13.26
30001;BMP280;16845;48.670;9.000;2023-06-14T01:37:53;95080.16;;;13.22
30001;BMP280;16845;48.670;9.000;2023-06-14T01:40:21;95077.38;;;13.10
30001;BMP280;16845;48.670;9.000;2023-06-14T01:42:50;95074.22;;;13.06
30001;BMP280;16845;48.670;9.000;2023-06-14T01:45:18;95072.84;;;12.99
30001;BMP280;16845;48.670;9.000;2023-06-14T01:47:45;95066.66;;;13.06
30001;BMP280;16845;48.670;9.000;2023-06-14T01:50:13;95075.63;;;12.93
30001;BMP280;16845;48.670;9.000;2023-06-14T01:52:40;95071.72;;;12.86
30001;BMP280;16845;48.670;9.000;2023-06-14T01:55:07;95068.31;;;12.87
30001;BMP280;16845;48.670;9.000;2023-06-14T01:57:35;95066.59;;;12.88
30001;BMP280;16845;48.670;9.000;2023-06-14T02:00:02;95071.44;;;12.92
30001;BMP280;16845;48.670;9.000;2023-06-14T02:02:29;95066.94;;;12.80
30001;BMP280;16845;48.670;9.000;2023-06-14T02:04:56;95070.69;;;12.72
30001;BMP280;16845;48.670;9.000;2023-06-14T02:07:22;95076.06;;;12.64
30001;BMP280;16845;48.670;9.000;2023-06-14T02:09:49;95073.16;;;12.73
30001;BMP280;16845;48.670;9.000;2023-06-14T02:12:15;95074.91;;;12.71
30001;BMP280;16845;48.670;9.000;2023-06-14T02:14:43;95073.56;;;12.64
30001;BMP280;16845;48.670;9.000;2023-06-14T02:17:10;95075.34;;;12.62
30001;BMP280;16845;48.670;9.000;2023-06-14T02:19:36;95078.84;;;12.58
30001;BMP280;16845;48.670;9.000;2023-06-14T02:22:03;95074.31;;;12.66
30001;BMP280;16845;48.670;9.000;2023-06-14T02:24:30;95071.63;;;12.69
30001;BMP280;16845;48.670;9.000;2023-06-14T02:26:57;95083.75;;;12.61
30001;BMP280;16845;48.670;9.000;2023-06-14T02:29:23;95075.09;;;12.48
30001;BMP280;16845;48.670;9.000;2023-06-14T02:31:51;95070.13;;;12.47
30001;BMP280;16845;48.670;9.000;2023-06-14T02:34:18;95079.50;;;12.43
30001;BMP280;16845;48.670;9.000;2023-06-14T02:36:44;95074.88;;;12.34
30001;BMP280;16845;48.670;9.000;2023-06-14T02:39:11;95072.38;;;12.53
30001;BMP280;16845;48.670;9.000;2023-06-14T02:41:38;95068.97;;;12.54
30001;BMP280;16845;48.670;9.000;2023-06-14T02:44:05;95066.19;;;12.41
30001;BMP280;16845;48.670;9.000;2023-06-14T02:46:32;95070.28;;;12.44
30001;BMP280;16845;48.670;9.000;2023-06-14T02:49:00;95067.34;;;12.53
30001;BMP280;16845;48.670;9.000;2023-06-14T02:51:27;95063.59;;;12.43
30001;BMP280;16845;48.670;9.000;2023-06-14T02:53:53;95076.50;;;12.35
30001;BMP280;16845;48.670;9.000;2023-06-14T02:56:20;95065.88;;;12.29
30001;BMP280;16845;48.670;9.000;2023-06-14T02:58:46;95067.50;;;12.30
30001;BMP280;16845;48.670;9.000;2023-06-14T03:01:13;95063.97;;;12.15
30001;BMP280;16845;48.670;9.000;2023-06-14T03:03:39;95065.41;;;12.21
30001;BMP280;16845;48.670;9.000;2023-06-14T03:06:07;95060.69;;;12.13
30001;BMP280;16845;48.670;9.000;2023-06-14T03:08:34;95064.34;;;12.06
30001;BMP280;16845;48.670;9.000;2023-06-14T03:11:01;95065.97;;;12.07
30001;BMP280;16845;48.670;9.000;2023-06-14T03:13:27;95069.75;;;11.97
30001;BMP280;16845;48.670;9.000;2023-06-14T03:15:54;95077.16;;;12.00
30001;BMP280;16845;48.670;9.000;2023-06-14T03:18:20;95079.25;;;11.91
30001;BMP280;16845;48.670;9.000;2023-06-14T03:20:49;95082.13;;;11.82
30001;BMP280;16845;48.670;9.000;2023-06-14T03:23:17;95088.66;;;11.86
30001;BMP280;16845;48.670;9.000;2023-06-14T03:25:43;95086.09;;;11.87
30001;BMP280;16845;48.670;9.000;2023-06-14T03:28:10;95089.66;;;11.82
30001;BMP280;16845;48.670;9.000;2023-06-14T03:30:37;95088.22;;;11.96
30001;BMP280;16845;48.670;9.000;2023-06-14T03:33:03;95094.06;;;11.97
30001;BMP280;16845;48.670;9.000;2023-06-14T03:35:30;95095.78;;;11.96
30001;BMP280;16845;48.670;9.000;2023-06-14T03:37:56;95095.03;;;11.94
30001;BMP280;16845;48.670;9.000;2023-06-14T03:40:24;95101.00;;;11.92
30001;BMP280;16845;48.670;9.000;2023-06-14T03:42:51;95093.50;;;11.90
30001;BMP280;16845;48.670;9.000;2023-06-14T03:45:17;95098.78;;;11.84
30001;BMP280;16845;48.670;9.000;2023-06-14T03:47:44;95107.50;;;11.96
30001;BMP280;16845;48.670;9.000;2023-06-14T03:50:10;95111.63;;;11.98
30001;BMP280;16845;48.670;9.000;2023-06-14T03:52:38;95107.47;;;11.97
30001;BMP280;16845;48.670;9.000;2023-06-14T03:55:06;95111.56;;;12.00
30001;BMP280;16845;48.670;9.000;2023-06-14T03:57:37;95120.66;;;12.02
30001;BMP280;16845;48.670;9.000;2023-06-14T04:00:04;95107.19;;;12.03
30001;BMP280;16845;48.670;9.000;2023-06-14T04:02:31;95113.44;;;12.15
30001;BMP280;16845;48.670;9.000;2023-06-14T04:04:57;95116.13;;;12.10
30001;BMP280;16845;48.670;9.000;2023-06-14T04:07:25;95122.66;;;12.14
30001;BMP280;16845;48.670;9.000;2023-06-14T04:09:52;95118.84;;;12.26
30001;BMP280;16845;48.670;9.000;2023-06-14T04:12:18;95123.56;;;12.33
30001;BMP280;16845;48.670;9.000;2023-06-14T04:14:46;95128.44;;;12.36
30001;BMP280;16845;48.670;9.000;2023-06-14T04:17:13;95122.28;;;12.43
30001;BMP280;16845;48.670;9.000;2023-06-14T04:19:40;95130.00;;;12.59
30001;BMP280;16845;48.670;9.000;2023-06-14T04:22:06;95135.00;;;12.60
30001;BMP280;16845;48.670;9.000;2023-06-14T04:24:33;95139.88;;;12.63
30001;BMP280;16845;48.670;9.000;2023-06-14T04:27:00;95131.44;;;12.64
30001;BMP280;16845;48.670;9.000;2023-06-14T04:29:27;95140.34;;;12.71
30001;BMP280;16845;48.670;9.000;2023-06-14T04:31:55;95133.28;;;12.79
30001;BMP280;16845;48.670;9.000;2023-06-14T04:34:22;95142.03;;;12.91
30001;BMP280;16845;48.670;9.000;2023-06-14T04:36:49;95134.97;;;12.99
30001;BMP280;16845;48.670;9.000;2023-06-14T04:39:16;95136.81;;;13.14
30001;BMP280;16845;48.670;9.000;2023-06-14T04:41:42;95138.84;;;13.24
30001;BMP280;16845;48.670;9.000;2023-06-14T04:44:09;95140.91;;;13.35
30001;BMP280;16845;48.670;9.000;2023-06-14T04:46:35;95140.53;;;13.42
30001;BMP280;16845;48.670;9.000;2023-06-14T04:49:03;95137.56;;;13.34
30001;BMP280;16845;48.670;9.000;2023-06-14T04:51:30;95139.16;;;13.54
30001;BMP280;16845;48.670;9.000;2023-06-14T04:53:56;95143.97;;;13.58
30001;BMP280;16845;48.670;9.000;2023-06-14T04:56:23;95150.09;;;13.71
30001;BMP280;16845;48.670;9.000;2023-06-14T04:58:49;95153.22;;;13.76
30001;BMP280;16845;48.670;9.000;2023-06-14T05:01:16;95158.22;;;13.95
30001;BMP280;16845;48.670;9.000;2023-06-14T05:03:42;95149.84;;;14.11
30001;BMP280;16845;48.670;9.000;2023-06-14T05:06:10;95157.25;;;14.14
30001;BMP280;16845;48.670;9.000;2023-06-14T05:08:37;95155.06;;;14.25
30001;BMP280;16845;48.670;9.000;2023-06-14T05:11:04;95154.91;;;14.28
30001;BMP280;16845;48.670;9.000;2023-06-14T05:13:30;95159.22;;;14.43
30001;BMP280;16845;48.670;9.000;2023-06-14T05:15:57;95151.63;;;14.60
30001;BMP280;16845;48.670;9.000;2023-06-14T05:18:24;95145.38;;;14.67
30001;BMP280;16845;48.670;9.000;2023-06-14T05:20:50;95147.94;;;14.82
30001;BMP280;16845;48.670;9.000;2023-06-14T05:23:18;95156.03;;;15.04
30001;BMP280;16845;48.670;9.000;2023-06-14T05:25:45;95158.59;;;15.20
30001;BMP280;16845;48.670;9.000;2023-06-14T05:28:12;95165.50;;;15.33
30001;BMP280;16845;48.670;9.000;2023-06-14T05:30:38;95159.28;;;15.39
30001;BMP280;16845;48.670;9.000;2023-06-14T05:33:05;95158.66;;;15.51
30001;BMP280;16845;48.670;9.000;2023-06-14T05:35:32;95155.88;;;15.55
30001;BMP280;16845;48.670;9.000;2023-06-14T05:37:58;95155.69;;;15.58
30001;BMP280;16845;48.670;9.000;2023-06-14T05:40:26;95162.97;;;15.80
30001;BMP280;16845;48.670;9.000;2023-06-14T05:42:53;95165.44;;;15.95
30001;BMP280;16845;48.670;9.000;2023-06-14T05:45:19;95170.69;;;15.92
30001;BMP280;16845;48.670;9.000;2023-06-14T05:47:46;95158.91;;;16.07
30001;BMP280;16845;48.670;9.000;2023-06-14T05:50:12;95158.69;;;16.41
30001;BMP280;16845;48.670;9.000;2023-06-14T05:52:39;95155.06;;;16.45
30001;BMP280;16845;48.670;9.000;2023-06-14T05:55:06;95154.75;;;16.78
30001;BMP280;16845;48.670;9.000;2023-06-14T05:57:34;95151.16;;;16.82
30001;BMP280;16845;48.670;9.000;2023-06-14T06:00:00;95148.78;;;17.21
30001;BMP280;16845;48.670;9.000;2023-06-14T06:02:27;95156.75;;;17.43
30001;BMP280;16845;48.670;9.000;2023-06-14T06:04:54;95154.03;;;17.46
30001;BMP280;16845;48.670;9.000;2023-06-14T06:07:20;95161.28;;;17.52
30001;BMP280;16845;48.670;9.000;2023-06-14T06:09:47;95151.81;;;17.95
30001;BMP280;16845;48.670;9.000;2023-06-14T06:12:13;95161.16;;;17.94
30001;BMP280;16845;48.670;9.000;2023-06-14T06:14:41;95160.75;;;18.00
30001;BMP280;16845;48.670;9.000;2023-06-14T06:17:07;95161.88;;;18.23
30001;BMP280;16845;48.670;9.000;2023-06-14T06:19:34;95156.69;;;18.63
30001;BMP280;16845;48.670;9.000;2023-06-14T06:22:02;95155.25;;;18.84
30001;BMP280;16845;48.670;9.000;2023-06-14T06:24:28;95161.25;;;18.96
30001;BMP280;16845;48.670;9.000;2023-06-14T06:26:55;95164.09;;;19.16
30001;BMP280;16845;48.670;9.000;2023-06-14T06:29:22;95161.19;;;19.22
30001;BMP280;16845;48.670;9.000;2023-06-14T06:31:50;95157.34;;;19.52
30001;BMP280;16845;48.670;9.000;2023-06-14T06:34:16;95154.38;;;19.58
30001;BMP280;16845;48.670;9.000;2023-06-14T06:36:43;95158.56;;;19.83
30001;BMP280;16845;48.670;9.000;2023-06-14T06:39:09;95160.56;;;20.03
30001;BMP280;16845;48.670;9.000;2023-06-14T06:41:37;95164.78;;;20.15
30001;BMP280;16845;48.670;9.000;2023-06-14T06:44:03;95166.72;;;19.88
30001;BMP280;16845;48.670;9.000;2023-06-14T06:46:30;95157.94;;;20.04
30001;BMP280;16845;48.670;9.000;2023-06-14T06:48:58;95159.19;;;20.33
30001;BMP280;16845;48.670;9.000;2023-06-14T06:51:24;95160.13;;;20.67
30001;BMP280;16845;48.670;9.000;2023-06-14T06:53:52;95167.63;;;20.92
30001;BMP280;16845;48.670;9.000;2023-06-14T06:56:19;95170.66;;;21.19
30001;BMP280;16845;48.670;9.000;2023-06-14T06:58:45;95168.09;;;21.52
30001;BMP280;16845;48.670;9.000;2023-06-14T07:01:12;95176.22;;;21.57
30001;BMP280;16845;48.670;9.000;2023-06-14T07:03:38;95174.59;;;21.77
30001;BMP280;16845;48.670;9.000;2023-06-14T07:06:06;95173.09;;;21.42
30001;BMP280;16845;48.670;9.000;2023-06-14T07:08:33;95179.50;;;21.80
30001;BMP280;16845;48.670;9.000;2023-06-14T07:10:59;95175.53;;;22.19
30001;BMP280;16845;48.670;9.000;2023-06-14T07:13:26;95175.47;;;22.09
30001;BMP280;16845;48.670;9.000;2023-06-14T07:15:54;95174.06;;;22.16
30001;BMP280;16845;48.670;9.000;2023-06-14T07:18:20;95180.78;;;21.75
30001;BMP280;16845;48.670;9.000;2023-06-14T07:20:47;95180.63;;;21.87
30001;BMP280;16845;48.670;9.000;2023-06-14T07:23:15;95183.72;;;22.44
30001;BMP280;16845;48.670;9.000;2023-06-14T07:25:41;95186.69;;;22.60
30001;BMP280;16845;48.670;9.000;2023-06-14T07:28:08;95182.97;;;23.05
30001;BMP280;16845;48.670;9.000;2023-06-14T07:30:35;95180.00;;;23.60
30001;BMP280;16845;48.670;9.000;2023-06-14T07:33:01;95179.22;;;23.60
30001;BMP280;16845;48.670;9.000;2023-06-14T07:35:28;95181.44;;;23.83
30001;BMP280;16845;48.670;9.000;2023-06-14T07:37:54;95186.78;;;24.10
30001;BMP280;16845;48.670;9.000;2023-06-14T07:40:22;95191.59;;;23.85
30001;BMP280;16845;48.670;9.000;2023-06-14T07:42:49;95194.22;;;23.74
30001;BMP280;16845;48.670;9.000;2023-06-14T07:45:15;95195.44;;;24.28
30001;BMP280;16845;48.670;9.000;2023-06-14T07:47:42;95199.91;;;24.26
30001;BMP280;16845;48.670;9.000;2023-06-14T07:50:09;95201.97;;;24.70
30001;BMP280;16845;48.670;9.000;2023-06-14T07:52:36;95190.09;;;24.88
30001;BMP280;16845;48.670;9.000;2023-06-14T07:55:03;95208.34;;;24.66
30001;BMP280;16845;48.670;9.000;2023-06-14T07:57:31;95198.28;;;24.34
30001;BMP280;16845;48.670;9.000;2023-06-14T07:59:57;95199.78;;;25.13
30001;BMP280;16845;48.670;9.000;2023-06-14T08:02:24;95201.22;;;25.44
30001;BMP280;16845;48.670;9.000;2023-06-14T08:04:51;95201.97;;;25.54
30001;BMP280;16845;48.670;9.000;2023-06-14T08:07:17;95200.66;;;26.13
30001;BMP280;16845;48.670;9.000;2023-06-14T08:09:44;95199.72;;;26.32
30001;BMP280;16845;48.670;9.000;2023-06-14T08:12:10;95200.38;;;25.89
30001;BMP280;16845;48.670;9.000;2023-06-14T08:14:39;95199.16;;;26.38
30001;BMP280;16845;48.670;9.000;2023-06-14T08:17:05;95201.38;;;27.02
30001;BMP280;16845;48.670;9.000;2023-06-14T08:19:32;95206.00;;;26.47
30001;BMP280;16845;48.670;9.000;2023-06-14T08:21:58;95207.69;;;25.84
30001;BMP280;16845;48.670;9.000;2023-06-14T08:24:25;95213.25;;;26.61
30001;BMP280;16845;48.670;9.000;2023-06-14T08:26:52;95215.78;;;26.16
30001;BMP280;16845;48.670;9.000;2023-06-14T08:29:18;95212.75;;;27.60
30001;BMP280;16845;48.670;9.000;2023-06-14T08:31:46;95202.22;;;27.79
30001;BMP280;16845;48.670;9.000;2023-06-14T08:34:13;95204.53;;;27.82
30001;BMP280;16845;48.670;9.000;2023-06-14T08:36:39;95215.66;;;27.91
30001;BMP280;16845;48.670;9.000;2023-06-14T08:39:06;95218.97;;;28.58
30001;BMP280;16845;48.670;9.000;2023-06-14T08:41:33;95214.84;;;27.14
30001;BMP280;16845;48.670;9.000;2023-06-14T08:43:59;95213.53;;;28.28
30001;BMP280;16845;48.670;9.000;2023-06-14T08:46:26;95206.75;;;29.32
30001;BMP280;16845;48.670;9.000;2023-06-14T08:48:55;95218.75;;;27.43
30001;BMP280;16845;48.670;9.000;2023-06-14T08:51:22;95215.25;;;28.11
30001;BMP280;16845;48.670;9.000;2023-06-14T08:53:53;95224.97;;;28.25
30001;BMP280;16845;48.670;9.000;2023-06-14T08:56:20;95213.34;;;29.35
30001;BMP280;16845;48.670;9.000;2023-06-14T08:58:47;95215.44;;;28.75
30001;BMP280;16845;48.670;9.000;2023-06-14T09:01:15;95221.88;;;28.71
30001;BMP280;16845;48.670;9.000;2023-06-14T09:03:42;95220.75;;;28.58
30001;BMP280;16845;48.670;9.000;2023-06-14T09:06:10;95218.00;;;28.59
30001;BMP280;16845;48.670;9.000;2023-06-14T09:08:36;95220.31;;;28.94
30001;BMP280;16845;48.670;9.000;2023-06-14T09:11:04;95220.66;;;29.31
30001;BMP280;16845;48.670;9.000;2023-06-14T09:13:31;95216.50;;;31.37
30001;BMP280;16845;48.670;9.000;2023-06-14T09:15:58;95217.59;;;30.14
30001;BMP280;16845;48.670;9.000;2023-06-14T09:18:34;95222.25;;;29.32
30001;BMP280;16845;48.670;9.000;2023-06-14T09:21:00;95222.13;;;29.96
30001;BMP280;16845;48.670;9.000;2023-06-14T09:23:28;95220.66;;;29.15
30001;BMP280;16845;48.670;9.000;2023-06-14T09:25:55;95222.13;;;29.26
30001;BMP280;16845;48.670;9.000;2023-06-14T09:28:27;95234.53;;;29.06
30001;BMP280;16845;48.670;9.000;2023-06-14T09:30:53;95230.31;;;29.45
30001;BMP280;16845;48.670;9.000;2023-06-14T09:33:20;95223.22;;;29.39
30001;BMP280;16845;48.670;9.000;2023-06-14T09:35:51;95224.19;;;29.14
30001;BMP280;16845;48.670;9.000;2023-06-14T09:38:17;95229.28;;;28.50
30001;BMP280;16845;48.670;9.000;2023-06-14T09:40:45;95233.03;;;30.91
30001;BMP280;16845;48.670;9.000;2023-06-14T09:43:12;95241.75;;;28.71
30001;BMP280;16845;48.670;9.000;2023-06-14T09:45:39;95234.28;;;29.95
30001;BMP280;16845;48.670;9.000;2023-06-14T09:48:06;95225.47;;;28.86
30001;BMP280;16845;48.670;9.000;2023-06-14T09:50:34;95242.25;;;28.90
30001;BMP280;16845;48.670;9.000;2023-06-14T09:53:02;95234.97;;;28.86
30001;BMP280;16845;48.670;9.000;2023-06-14T09:55:30;95235.59;;;30.30
30001;BMP280;16845;48.670;9.000;2023-06-14T09:58:00;95236.88;;;30.72
30001;BMP280;16845;48.670;9.000;2023-06-14T10:00:30;95223.75;;;29.97
30001;BMP280;16845;48.670;9.000;2023-06-14T10:03:00;95226.53;;;28.52
30001;BMP280;16845;48.670;9.000;2023-06-14T10:05:29;95248.69;;;27.44
30001;BMP280;16845;48.670;9.000;2023-06-14T10:08:00;95230.66;;;29.18
30001;BMP280;16845;48.670;9.000;2023-06-14T10:10:30;95232.09;;;28.97
30001;BMP280;16845;48.670;9.000;2023-06-14T10:12:57;95231.97;;;29.54
30001;BMP280;16845;48.670;9.000;2023-06-14T10:15:28;95225.75;;;31.17
30001;BMP280;16845;48.670;9.000;2023-06-14T10:18:00;95221.34;;;29.95
30001;BMP280;16845;48.670;9.000;2023-06-14T10:20:32;95232.81;;;30.78
30001;BMP280;16845;48.670;9.000;2023-06-14T10:23:03;95229.81;;;32.14
30001;BMP280;16845;48.670;9.000;2023-06-14T10:25:33;95228.91;;;32.50
30001;BMP280;16845;48.670;9.000;2023-06-14T10:28:14;95216.34;;;33.52
30001;BMP280;16845;48.670;9.000;2023-06-14T10:31:01;95224.75;;;33.75
30001;BMP280;16845;48.670;9.000;2023-06-14T10:33:28;95224.06;;;32.47
30001;BMP280;16845;48.670;9.000;2023-06-14T10:36:07;95232.44;;;32.78
30001;BMP280;16845;48.670;9.000;2023-06-14T10:38:36;95212.47;;;34.37
30001;BMP280;16845;48.670;9.000;2023-06-14T10:41:04;95216.41;;;32.75
30001;BMP280;16845;48.670;9.000;2023-06-14T10:43:30;95216.13;;;31.91
30001;BMP280;16845;48.670;9.000;2023-06-14T10:46:17;95217.09;;;29.48
30001;BMP280;16845;48.670;9.000;2023-06-14T10:48:44;95234.31;;;28.26
30001;BMP280;16845;48.670;9.000;2023-06-14T10:51:18;95244.66;;;27.42
30001;BMP280;16845;48.670;9.000;2023-06-14T10:53:46;95233.53;;;30.64
30001;BMP280;16845;48.670;9.000;2023-06-14T10:56:23;95221.16;;;32.92
30001;BMP280;16845;48.670;9.000;2023-06-14T10:58:50;95219.56;;;34.16
30001;BMP280;16845;48.670;9.000;2023-06-14T11:01:31;95223.72;;;34.44
30001;BMP280;16845;48.670;9.000;2023-06-14T11:04:06;95214.00;;;32.59
30001;BMP280;16845;48.670;9.000;2023-06-14T11:06:46;95234.63;;;30.31
30001;BMP280;16845;48.670;9.000;2023-06-14T11:09:50;95238.97;;;28.72
30001;BMP280;16845;48.670;9.000;2023-06-14T11:12:19;95224.41;;;31.58
30001;BMP280;16845;48.670;9.000;2023-06-14T11:14:46;95227.88;;;33.43
30001;BMP280;16845;48.670;9.000;2023-06-14T11:17:14;95213.84;;;34.27
30001;BMP280;16845;48.670;9.000;2023-06-14T11:19:41;95231.50;;;34.78
30001;BMP280;16845;48.670;9.000;2023-06-14T11:22:08;95220.78;;;36.99
30001;BMP280;16845;48.670;9.000;2023-06-14T11:24:35;95222.91;;;34.44
30001;BMP280;16845;48.670;9.000;2023-06-14T11:27:02;95216.41;;;38.39
30001;BMP280;16845;48.670;9.000;2023-06-14T11:29:29;95216.44;;;38.69
30001;BMP280;16845;48.670;9.000;2023-06-14T11:31:55;95219.56;;;35.61
30001;BMP280;16845;48.670;9.000;2023-06-14T11:34:24;95219.50;;;36.77
30001;BMP280;16845;48.670;9.000;2023-06-14T11:36:51;95197.44;;;36.16
30001;BMP280;16845;48.670;9.000;2023-06-14T11:39:17;95222.38;;;30.25
30001;BMP280;16845;48.670;9.000;2023-06-14T11:41:50;95215.63;;;29.38
30001;BMP280;16845;48.670;9.000;2023-06-14T11:44:16;95222.56;;;29.37
30001;BMP280;16845;48.670;9.000;2023-06-14T11:46:44;95227.00;;;31.21
30001;BMP280;16845;48.670;9.000;2023-06-14T11:49:11;95217.38;;;34.19
30001;BMP280;16845;48.670;9.000;2023-06-14T11:51:38;95213.94;;;38.44
30001;BMP280;16845;48.670;9.000;2023-06-14T11:54:06;95209.44;;;39.10
30001;BMP280;16845;48.670;9.000;2023-06-14T11:56:33;95203.31;;;35.46
30001;BMP280;16845;48.670;9.000;2023-06-14T11:58:59;95212.72;;;30.80
30001;BMP280;16845;48.670;9.000;2023-06-14T12:01:26;95214.34;;;35.29
30001;BMP280;16845;48.670;9.000;2023-06-14T12:03:53;95226.84;;;32.17
30001;BMP280;16845;48.670;9.000;2023-06-14T12:06:26;95216.38;;;35.66
30001;BMP280;16845;48.670;9.000;2023-06-14T12:08:55;95224.38;;;35.51
30001;BMP280;16845;48.670;9.000;2023-06-14T12:11:22;95217.88;;;33.95
30001;BMP280;16845;48.670;9.000;2023-06-14T12:13:48;95221.63;;;32.60
30001;BMP280;16845;48.670;9.000;2023-06-14T12:16:15;95223.53;;;33.08
30001;BMP280;16845;48.670;9.000;2023-06-14T12:18:42;95216.31;;;34.07
30001;BMP280;16845;48.670;9.000;2023-06-14T12:21:09;95212.13;;;35.32
30001;BMP280;16845;48.670;9.000;2023-06-14T12:23:42;95212.72;;;37.00
30001;BMP280;16845;48.670;9.000;2023-06-14T12:26:12;95219.16;;;34.59
30001;BMP280;16845;48.670;9.000;2023-06-14T12:28:40;95208.94;;;35.24
30001;BMP280;16845;48.670;9.000;2023-06-14T12:31:06;95209.91;;;35.81
30001;BMP280;16845;48.670;9.000;2023-06-14T12:33:33;95201.81;;;40.30
30001;BMP280;16845;48.670;9.000;2023-06-14T12:35:59;95202.06;;;41.07
30001;BMP280;16845;48.670;9.000;2023-06-14T12:38:29;95215.03;;;39.55
30001;BMP280;16845;48.670;9.000;2023-06-14T12:40:55;95199.44;;;41.24
30001;BMP280;16845;48.670;9.000;2023-06-14T12:43:23;95205.81;;;39.11
30001;BMP280;16845;48.670;9.000;2023-06-14T12:45:50;95197.03;;;38.04
30001;BMP280;16845;48.670;9.000;2023-06-14T12:48:16;95203.56;;;36.85
30001;BMP280;16845;48.670;9.000;2023-06-14T12:50:42;95202.00;;;34.71
30001;BMP280;16845;48.670;9.000;2023-06-14T12:53:09;95212.97;;;33.58
30001;BMP280;16845;48.670;9.000;2023-06-14T12:55:35;95203.22;;;34.28
30001;BMP280;16845;48.670;9.000;2023-06-14T12:58:02;95218.63;;;34.23
30001;BMP280;16845;48.670;9.000;2023-06-14T13:00:30;95224.03;;;36.44
30001;BMP280;16845;48.670;9.000;2023-06-14T13:02:56;95213.81;;;39.69
30001;BMP280;16845;48.670;9.000;2023-06-14T13:05:24;95210.88;;;39.65
30001;BMP280;16845;48.670;9.000;2023-06-14T13:07:50;95194.19;;;38.60
30001;BMP280;16845;48.670;9.000;2023-06-14T13:10:17;95192.09;;;37.97
30001;BMP280;16845;48.670;9.000;2023-06-14T13:12:44;95199.72;;;35.73
30001;BMP280;16845;48.670;9.000;2023-06-14T13:15:10;95215.19;;;33.13
30001;BMP280;16845;48.670;9.000;2023-06-14T13:17:38;95216.56;;;35.58
30001;BMP280;16845;48.670;9.000;2023-06-14T13:20:05;95209.91;;;37.33
30001;BMP280;16845;48.670;9.000;2023-06-14T13:22:32;95215.44;;;40.16
30001;BMP280;16845;48.670;9.000;2023-06-14T13:24:59;95207.94;;;41.59
30001;BMP280;16845;48.670;9.000;2023-06-14T13:27:26;95219.59;;;41.46
30001;BMP280;16845;48.670;9.000;2023-06-14T13:29:53;95221.38;;;35.54
30001;BMP280;16845;48.670;9.000;2023-06-14T13:32:20;95214.53;;;38.94
30001;BMP280;16845;48.670;9.000;2023-06-14T13:34:49;95212.91;;;39.75
30001;BMP280;16845;48.670;9.000;2023-06-14T13:37:16;95219.66;;;41.35
30001;BMP280;16845;48.670;9.000;2023-06-14T13:39:42;95223.91;;;41.36
30001;BMP280;16845;48.670;9.000;2023-06-14T13:42:09;95221.75;;;35.84
30001;BMP280;16845;48.670;9.000;2023-06-14T13:44:36;95207.66;;;38.09
30001;BMP280;16845;48.670;9.000;2023-06-14T13:47:02;95222.94;;;34.50
30001;BMP280;16845;48.670;9.000;2023-06-14T13:49:29;95208.97;;;38.18
30001;BMP280;16845;48.670;9.000;2023-06-14T13:51:58;95205.34;;;35.77
30001;BMP280;16845;48.670;9.000;2023-06-14T13:54:24;95210.47;;;34.39
30001;BMP280;16845;48.670;9.000;2023-06-14T13:56:51;95214.25;;;34.24
30001;BMP280;16845;48.670;9.000;2023-06-14T13:59:17;95205.78;;;32.91
30001;BMP280;16845;48.670;9.000;2023-06-14T14:01:44;95208.41;;;34.28
30001;BMP280;16845;48.670;9.000;2023-06-14T14:04:10;95188.00;;;33.15
30001;BMP280;16845;48.670;9.000;2023-06-14T14:06:37;95191.13;;;33.04
30001;BMP280;16845;48.670;9.000;2023-06-14T14:09:05;95199.19;;;33.85
30001;BMP280;16845;48.670;9.000;2023-06-14T14:11:31;95199.88;;;35.20